Weather at Eppley Airfield

Public forecast

Using degrees Fahrenheit for public forecast. Weather courtesy of forecast.io.

Current aviation weather report (METAR) for Eppley Airfield

2024/05/19 06:52 (retrieved 49 minutes ago)

KOMA 190652Z 35005KT 10SM CLR 14/08 A2997 RMK AO2 SLP143 T01390078

Aviation forecast (TAF) for Eppley Airfield

2024/05/19 06:22 (retrieved 1 hour ago)

TAF KOMA 190520Z 1906/2006 03006KT P6SM SKC FM191200 10009KT 6SM -TSRA BKN120CB FM191500 10010G19KT P6SM BKN150 FM191800 15013G22KT P6SM BKN120 FM200100 15010KT P6SM BKN090